sensor_id;sensor_type;location;lat;lon;timestamp;P1;durP1;ratioP1;P2;durP2;ratioP2
14074;SDS011;12831;52.392;13.066;2023-02-28T00:00:02;9.57;;;4.80;;
14074;SDS011;12831;52.392;13.066;2023-02-28T00:02:36;10.77;;;5.77;;
14074;SDS011;12831;52.392;13.066;2023-02-28T00:05:01;10.47;;;5.70;;
14074;SDS011;12831;52.392;13.066;2023-02-28T00:07:29;12.57;;;6.07;;
14074;SDS011;12831;52.392;13.066;2023-02-28T00:09:56;10.77;;;6.27;;
14074;SDS011;12831;52.392;13.066;2023-02-28T00:12:21;10.63;;;6.67;;
14074;SDS011;12831;52.392;13.066;2023-02-28T00:14:48;10.50;;;5.97;;
14074;SDS011;12831;52.392;13.066;2023-02-28T00:17:14;9.40;;;5.80;;
14074;SDS011;12831;52.392;13.066;2023-02-28T00:19:40;8.43;;;5.70;;
14074;SDS011;12831;52.392;13.066;2023-02-28T00:22:06;8.20;;;5.03;;
14074;SDS011;12831;52.392;13.066;2023-02-28T00:24:32;10.90;;;6.50;;
14074;SDS011;12831;52.392;13.066;2023-02-28T00:26:57;14.63;;;5.17;;
14074;SDS011;12831;52.392;13.066;2023-02-28T00:29:23;10.13;;;5.97;;
14074;SDS011;12831;52.392;13.066;2023-02-28T00:31:49;7.90;;;5.60;;
14074;SDS011;12831;52.392;13.066;2023-02-28T00:34:15;9.00;;;5.17;;
14074;SDS011;12831;52.392;13.066;2023-02-28T00:36:40;7.27;;;4.93;;
14074;SDS011;12831;52.392;13.066;2023-02-28T00:39:11;8.68;;;5.40;;
14074;SDS011;12831;52.392;13.066;2023-02-28T00:41:36;9.03;;;5.83;;
14074;SDS011;12831;52.392;13.066;2023-02-28T00:44:02;9.90;;;5.50;;
14074;SDS011;12831;52.392;13.066;2023-02-28T00:46:28;11.00;;;6.28;;
14074;SDS011;12831;52.392;13.066;2023-02-28T00:48:54;10.45;;;6.05;;
14074;SDS011;12831;52.392;13.066;2023-02-28T00:51:20;10.27;;;5.83;;
14074;SDS011;12831;52.392;13.066;2023-02-28T00:53:45;11.57;;;6.00;;
14074;SDS011;12831;52.392;13.066;2023-02-28T00:56:11;9.85;;;5.72;;
14074;SDS011;12831;52.392;13.066;2023-02-28T00:58:37;10.98;;;5.38;;
14074;SDS011;12831;52.392;13.066;2023-02-28T01:01:03;8.93;;;5.32;;
14074;SDS011;12831;52.392;13.066;2023-02-28T01:03:28;10.88;;;5.53;;
14074;SDS011;12831;52.392;13.066;2023-02-28T01:05:54;7.70;;;4.68;;
14074;SDS011;12831;52.392;13.066;2023-02-28T01:08:20;7.72;;;4.72;;
14074;SDS011;12831;52.392;13.066;2023-02-28T01:10:46;10.23;;;5.47;;
14074;SDS011;12831;52.392;13.066;2023-02-28T01:13:12;9.10;;;5.53;;
14074;SDS011;12831;52.392;13.066;2023-02-28T01:15:39;8.55;;;5.32;;
14074;SDS011;12831;52.392;13.066;2023-02-28T01:18:07;9.70;;;5.50;;
14074;SDS011;12831;52.392;13.066;2023-02-28T01:20:32;8.95;;;5.82;;
14074;SDS011;12831;52.392;13.066;2023-02-28T01:22:58;8.20;;;4.75;;
14074;SDS011;12831;52.392;13.066;2023-02-28T01:25:24;9.27;;;5.25;;
14074;SDS011;12831;52.392;13.066;2023-02-28T01:27:50;7.88;;;4.70;;
14074;SDS011;12831;52.392;13.066;2023-02-28T01:30:16;9.27;;;4.97;;
14074;SDS011;12831;52.392;13.066;2023-02-28T01:32:42;12.73;;;6.45;;
14074;SDS011;12831;52.392;13.066;2023-02-28T01:35:07;11.73;;;5.07;;
14074;SDS011;12831;52.392;13.066;2023-02-28T01:37:33;10.80;;;4.32;;
14074;SDS011;12831;52.392;13.066;2023-02-28T01:39:59;7.47;;;4.82;;
14074;SDS011;12831;52.392;13.066;2023-02-28T01:42:25;9.93;;;4.83;;
14074;SDS011;12831;52.392;13.066;2023-02-28T01:47:22;9.32;;;5.18;;
14074;SDS011;12831;52.392;13.066;2023-02-28T01:49:48;10.37;;;4.80;;
14074;SDS011;12831;52.392;13.066;2023-02-28T01:52:14;11.20;;;5.50;;
14074;SDS011;12831;52.392;13.066;2023-02-28T01:54:45;8.53;;;4.40;;
14074;SDS011;12831;52.392;13.066;2023-02-28T01:57:14;9.87;;;5.73;;
14074;SDS011;12831;52.392;13.066;2023-02-28T01:59:42;8.70;;;4.85;;
14074;SDS011;12831;52.392;13.066;2023-02-28T02:02:14;10.90;;;5.20;;
14074;SDS011;12831;52.392;13.066;2023-02-28T02:04:45;7.07;;;4.13;;
14074;SDS011;12831;52.392;13.066;2023-02-28T02:07:12;9.93;;;4.22;;
14074;SDS011;12831;52.392;13.066;2023-02-28T02:09:38;9.13;;;5.47;;
14074;SDS011;12831;52.392;13.066;2023-02-28T02:12:08;8.90;;;4.30;;
14074;SDS011;12831;52.392;13.066;2023-02-28T02:14:43;9.57;;;4.47;;
14074;SDS011;12831;52.392;13.066;2023-02-28T02:18:00;8.70;;;4.73;;
14074;SDS011;12831;52.392;13.066;2023-02-28T02:22:35;10.43;;;4.87;;
14074;SDS011;12831;52.392;13.066;2023-02-28T02:27:34;9.13;;;4.53;;
14074;SDS011;12831;52.392;13.066;2023-02-28T02:35:34;10.13;;;4.27;;
14074;SDS011;12831;52.392;13.066;2023-02-28T02:38:49;9.47;;;4.70;;
14074;SDS011;12831;52.392;13.066;2023-02-28T02:44:02;7.97;;;5.23;;
14074;SDS011;12831;52.392;13.066;2023-02-28T02:46:32;7.90;;;4.57;;
14074;SDS011;12831;52.392;13.066;2023-02-28T02:49:00;8.60;;;4.53;;
14074;SDS011;12831;52.392;13.066;2023-02-28T02:51:26;10.57;;;5.37;;
14074;SDS011;12831;52.392;13.066;2023-02-28T02:54:04;8.37;;;4.47;;
14074;SDS011;12831;52.392;13.066;2023-02-28T02:56:32;11.27;;;4.83;;
14074;SDS011;12831;52.392;13.066;2023-02-28T02:59:03;9.57;;;4.50;;
14074;SDS011;12831;52.392;13.066;2023-02-28T03:01:30;7.97;;;5.00;;
14074;SDS011;12831;52.392;13.066;2023-02-28T03:04:01;8.80;;;4.70;;
14074;SDS011;12831;52.392;13.066;2023-02-28T03:06:28;12.23;;;5.43;;
14074;SDS011;12831;52.392;13.066;2023-02-28T03:08:54;6.27;;;3.70;;
14074;SDS011;12831;52.392;13.066;2023-02-28T03:11:20;8.93;;;4.30;;
14074;SDS011;12831;52.392;13.066;2023-02-28T03:13:49;8.93;;;4.60;;
14074;SDS011;12831;52.392;13.066;2023-02-28T03:21:20;7.43;;;4.53;;
14074;SDS011;12831;52.392;13.066;2023-02-28T03:24:11;7.33;;;4.63;;
14074;SDS011;12831;52.392;13.066;2023-02-28T03:26:36;8.40;;;4.37;;
14074;SDS011;12831;52.392;13.066;2023-02-28T03:29:05;8.07;;;4.73;;
14074;SDS011;12831;52.392;13.066;2023-02-28T03:31:35;11.20;;;5.70;;
14074;SDS011;12831;52.392;13.066;2023-02-28T03:34:04;15.57;;;5.93;;
14074;SDS011;12831;52.392;13.066;2023-02-28T03:36:35;9.13;;;5.40;;
14074;SDS011;12831;52.392;13.066;2023-02-28T03:39:14;8.97;;;4.93;;
14074;SDS011;12831;52.392;13.066;2023-02-28T03:44:14;9.87;;;5.90;;
14074;SDS011;12831;52.392;13.066;2023-02-28T03:46:49;10.30;;;5.27;;
14074;SDS011;12831;52.392;13.066;2023-02-28T03:49:32;16.40;;;5.70;;
14074;SDS011;12831;52.392;13.066;2023-02-28T03:51:58;9.60;;;5.40;;
14074;SDS011;12831;52.392;13.066;2023-02-28T03:54:27;7.73;;;4.30;;
14074;SDS011;12831;52.392;13.066;2023-02-28T03:57:15;8.17;;;4.50;;
14074;SDS011;12831;52.392;13.066;2023-02-28T03:59:44;11.37;;;5.67;;
14074;SDS011;12831;52.392;13.066;2023-02-28T04:02:11;12.43;;;5.40;;
14074;SDS011;12831;52.392;13.066;2023-02-28T04:04:38;11.90;;;5.50;;
14074;SDS011;12831;52.392;13.066;2023-02-28T04:07:07;12.30;;;6.07;;
14074;SDS011;12831;52.392;13.066;2023-02-28T04:09:33;10.35;;;5.43;;
14074;SDS011;12831;52.392;13.066;2023-02-28T04:11:59;10.77;;;5.37;;
14074;SDS011;12831;52.392;13.066;2023-02-28T04:14:25;10.20;;;6.33;;
14074;SDS011;12831;52.392;13.066;2023-02-28T04:16:51;9.60;;;5.90;;
14074;SDS011;12831;52.392;13.066;2023-02-28T04:19:18;9.37;;;6.07;;
14074;SDS011;12831;52.392;13.066;2023-02-28T04:21:44;11.40;;;6.23;;
14074;SDS011;12831;52.392;13.066;2023-02-28T04:24:14;8.77;;;5.17;;
14074;SDS011;12831;52.392;13.066;2023-02-28T04:26:41;9.68;;;5.10;;
14074;SDS011;12831;52.392;13.066;2023-02-28T04:29:09;10.37;;;5.83;;
14074;SDS011;12831;52.392;13.066;2023-02-28T04:31:35;13.17;;;6.57;;
14074;SDS011;12831;52.392;13.066;2023-02-28T04:34:01;15.70;;;6.47;;
14074;SDS011;12831;52.392;13.066;2023-02-28T04:36:27;11.97;;;5.73;;
14074;SDS011;12831;52.392;13.066;2023-02-28T04:38:53;12.00;;;6.57;;
14074;SDS011;12831;52.392;13.066;2023-02-28T04:41:19;11.53;;;5.53;;
14074;SDS011;12831;52.392;13.066;2023-02-28T04:43:45;12.97;;;6.20;;
14074;SDS011;12831;52.392;13.066;2023-02-28T04:46:11;9.97;;;5.90;;
14074;SDS011;12831;52.392;13.066;2023-02-28T04:48:38;14.53;;;7.67;;
14074;SDS011;12831;52.392;13.066;2023-02-28T04:51:04;12.60;;;7.93;;
14074;SDS011;12831;52.392;13.066;2023-02-28T04:53:31;14.50;;;7.07;;
14074;SDS011;12831;52.392;13.066;2023-02-28T04:55:57;14.93;;;6.30;;
14074;SDS011;12831;52.392;13.066;2023-02-28T04:58:23;11.57;;;5.93;;
14074;SDS011;12831;52.392;13.066;2023-02-28T05:00:49;10.57;;;6.00;;
14074;SDS011;12831;52.392;13.066;2023-02-28T05:03:15;16.43;;;6.13;;
14074;SDS011;12831;52.392;13.066;2023-02-28T05:05:41;10.03;;;6.03;;
14074;SDS011;12831;52.392;13.066;2023-02-28T05:08:06;11.37;;;6.57;;
14074;SDS011;12831;52.392;13.066;2023-02-28T05:10:32;15.93;;;7.83;;
14074;SDS011;12831;52.392;13.066;2023-02-28T05:12:58;17.33;;;9.47;;
14074;SDS011;12831;52.392;13.066;2023-02-28T05:15:24;10.97;;;6.30;;
14074;SDS011;12831;52.392;13.066;2023-02-28T05:17:50;9.87;;;5.30;;
14074;SDS011;12831;52.392;13.066;2023-02-28T05:20:16;14.90;;;7.67;;
14074;SDS011;12831;52.392;13.066;2023-02-28T05:22:42;13.30;;;5.53;;
14074;SDS011;12831;52.392;13.066;2023-02-28T05:25:12;12.87;;;5.90;;
14074;SDS011;12831;52.392;13.066;2023-02-28T05:27:39;13.40;;;7.18;;
14074;SDS011;12831;52.392;13.066;2023-02-28T05:30:06;14.93;;;7.80;;
14074;SDS011;12831;52.392;13.066;2023-02-28T05:32:31;14.03;;;7.27;;
14074;SDS011;12831;52.392;13.066;2023-02-28T05:34:57;13.13;;;6.30;;
14074;SDS011;12831;52.392;13.066;2023-02-28T05:37:23;11.17;;;5.97;;
14074;SDS011;12831;52.392;13.066;2023-02-28T05:39:49;14.43;;;5.90;;
14074;SDS011;12831;52.392;13.066;2023-02-28T05:42:15;10.13;;;6.07;;
14074;SDS011;12831;52.392;13.066;2023-02-28T05:44:41;11.60;;;5.70;;
14074;SDS011;12831;52.392;13.066;2023-02-28T05:47:08;11.80;;;6.17;;
14074;SDS011;12831;52.392;13.066;2023-02-28T05:49:34;11.80;;;6.23;;
14074;SDS011;12831;52.392;13.066;2023-02-28T05:52:00;11.67;;;6.87;;
14074;SDS011;12831;52.392;13.066;2023-02-28T05:54:25;11.20;;;6.53;;
14074;SDS011;12831;52.392;13.066;2023-02-28T05:56:51;9.00;;;6.80;;
14074;SDS011;12831;52.392;13.066;2023-02-28T05:59:17;10.73;;;5.53;;
14074;SDS011;12831;52.392;13.066;2023-02-28T06:01:44;12.77;;;5.50;;
14074;SDS011;12831;52.392;13.066;2023-02-28T06:04:16;13.87;;;6.23;;
14074;SDS011;12831;52.392;13.066;2023-02-28T06:06:56;12.30;;;6.57;;
14074;SDS011;12831;52.392;13.066;2023-02-28T06:09:23;16.67;;;7.03;;
14074;SDS011;12831;52.392;13.066;2023-02-28T06:11:49;18.07;;;7.07;;
14074;SDS011;12831;52.392;13.066;2023-02-28T06:14:15;15.27;;;6.30;;
14074;SDS011;12831;52.392;13.066;2023-02-28T06:16:42;11.53;;;8.20;;
14074;SDS011;12831;52.392;13.066;2023-02-28T06:19:08;12.10;;;6.77;;
14074;SDS011;12831;52.392;13.066;2023-02-28T06:21:34;12.70;;;5.83;;
14074;SDS011;12831;52.392;13.066;2023-02-28T06:24:02;10.40;;;6.50;;
14074;SDS011;12831;52.392;13.066;2023-02-28T06:26:28;16.17;;;7.30;;
14074;SDS011;12831;52.392;13.066;2023-02-28T06:28:54;15.27;;;7.37;;
14074;SDS011;12831;52.392;13.066;2023-02-28T06:31:21;14.10;;;6.90;;
14074;SDS011;12831;52.392;13.066;2023-02-28T06:33:56;12.97;;;6.37;;
14074;SDS011;12831;52.392;13.066;2023-02-28T06:36:23;10.93;;;7.10;;
14074;SDS011;12831;52.392;13.066;2023-02-28T06:38:49;11.13;;;6.20;;
14074;SDS011;12831;52.392;13.066;2023-02-28T06:41:24;14.20;;;6.43;;
14074;SDS011;12831;52.392;13.066;2023-02-28T06:43:50;11.85;;;6.80;;
14074;SDS011;12831;52.392;13.066;2023-02-28T06:46:17;15.67;;;6.60;;
14074;SDS011;12831;52.392;13.066;2023-02-28T06:48:43;18.23;;;8.43;;
14074;SDS011;12831;52.392;13.066;2023-02-28T06:51:12;23.17;;;8.73;;
14074;SDS011;12831;52.392;13.066;2023-02-28T06:53:39;16.60;;;7.80;;
14074;SDS011;12831;52.392;13.066;2023-02-28T06:56:07;16.60;;;8.77;;
14074;SDS011;12831;52.392;13.066;2023-02-28T06:58:34;11.23;;;6.77;;
14074;SDS011;12831;52.392;13.066;2023-02-28T07:01:01;16.10;;;6.53;;
14074;SDS011;12831;52.392;13.066;2023-02-28T07:03:36;12.57;;;7.20;;
14074;SDS011;12831;52.392;13.066;2023-02-28T07:06:02;12.67;;;6.73;;
14074;SDS011;12831;52.392;13.066;2023-02-28T07:08:30;12.77;;;6.43;;
14074;SDS011;12831;52.392;13.066;2023-02-28T07:10:57;12.70;;;6.20;;
14074;SDS011;12831;52.392;13.066;2023-02-28T07:13:23;11.80;;;6.90;;
14074;SDS011;12831;52.392;13.066;2023-02-28T07:15:58;14.07;;;6.83;;
14074;SDS011;12831;52.392;13.066;2023-02-28T07:18:24;13.57;;;6.60;;
14074;SDS011;12831;52.392;13.066;2023-02-28T07:20:50;12.23;;;6.17;;
14074;SDS011;12831;52.392;13.066;2023-02-28T07:23:17;11.47;;;7.33;;
14074;SDS011;12831;52.392;13.066;2023-02-28T07:25:42;14.90;;;7.70;;
14074;SDS011;12831;52.392;13.066;2023-02-28T07:28:09;14.47;;;8.07;;
14074;SDS011;12831;52.392;13.066;2023-02-28T07:30:36;16.87;;;7.50;;
14074;SDS011;12831;52.392;13.066;2023-02-28T07:33:02;16.80;;;8.87;;
14074;SDS011;12831;52.392;13.066;2023-02-28T07:35:29;12.77;;;7.07;;
14074;SDS011;12831;52.392;13.066;2023-02-28T07:37:57;16.30;;;7.07;;
14074;SDS011;12831;52.392;13.066;2023-02-28T07:40:23;15.40;;;6.97;;
14074;SDS011;12831;52.392;13.066;2023-02-28T07:42:49;11.17;;;5.93;;
14074;SDS011;12831;52.392;13.066;2023-02-28T07:45:16;11.70;;;6.63;;
14074;SDS011;12831;52.392;13.066;2023-02-28T07:47:43;14.67;;;6.63;;
14074;SDS011;12831;52.392;13.066;2023-02-28T07:50:10;15.33;;;6.83;;
14074;SDS011;12831;52.392;13.066;2023-02-28T07:52:37;12.40;;;7.77;;
14074;SDS011;12831;52.392;13.066;2023-02-28T07:55:04;13.20;;;7.70;;
14074;SDS011;12831;52.392;13.066;2023-02-28T07:57:30;14.23;;;5.97;;
14074;SDS011;12831;52.392;13.066;2023-02-28T07:59:55;11.20;;;5.87;;
14074;SDS011;12831;52.392;13.066;2023-02-28T08:02:23;16.50;;;6.63;;
14074;SDS011;12831;52.392;13.066;2023-02-28T08:04:48;9.77;;;6.33;;
14074;SDS011;12831;52.392;13.066;2023-02-28T08:07:15;9.53;;;5.23;;
14074;SDS011;12831;52.392;13.066;2023-02-28T08:09:41;9.50;;;5.83;;
14074;SDS011;12831;52.392;13.066;2023-02-28T08:12:08;11.97;;;5.70;;
14074;SDS011;12831;52.392;13.066;2023-02-28T08:14:35;9.73;;;5.53;;
14074;SDS011;12831;52.392;13.066;2023-02-28T08:17:01;12.63;;;5.03;;
14074;SDS011;12831;52.392;13.066;2023-02-28T08:19:27;12.40;;;5.17;;
14074;SDS011;12831;52.392;13.066;2023-02-28T08:21:53;8.33;;;4.90;;
14074;SDS011;12831;52.392;13.066;2023-02-28T08:24:19;6.53;;;4.10;;
14074;SDS011;12831;52.392;13.066;2023-02-28T08:26:45;6.93;;;4.13;;
14074;SDS011;12831;52.392;13.066;2023-02-28T08:29:12;7.90;;;3.57;;
14074;SDS011;12831;52.392;13.066;2023-02-28T08:31:37;6.40;;;3.33;;
14074;SDS011;12831;52.392;13.066;2023-02-28T08:34:07;6.17;;;3.40;;
14074;SDS011;12831;52.392;13.066;2023-02-28T08:36:33;6.35;;;2.88;;
14074;SDS011;12831;52.392;13.066;2023-02-28T08:38:59;5.07;;;2.83;;
14074;SDS011;12831;52.392;13.066;2023-02-28T08:41:27;7.13;;;2.73;;
14074;SDS011;12831;52.392;13.066;2023-02-28T08:43:54;12.83;;;4.00;;
14074;SDS011;12831;52.392;13.066;2023-02-28T08:46:20;5.87;;;3.70;;
14074;SDS011;12831;52.392;13.066;2023-02-28T08:48:46;7.17;;;3.37;;
14074;SDS011;12831;52.392;13.066;2023-02-28T08:51:13;11.87;;;3.43;;
14074;SDS011;12831;52.392;13.066;2023-02-28T08:53:41;4.10;;;2.27;;
14074;SDS011;12831;52.392;13.066;2023-02-28T08:56:11;4.87;;;2.17;;
14074;SDS011;12831;52.392;13.066;2023-02-28T08:58:37;4.82;;;2.03;;
14074;SDS011;12831;52.392;13.066;2023-02-28T09:01:13;6.47;;;2.63;;
14074;SDS011;12831;52.392;13.066;2023-02-28T09:03:39;6.77;;;1.87;;
14074;SDS011;12831;52.392;13.066;2023-02-28T09:06:07;9.07;;;3.05;;
14074;SDS011;12831;52.392;13.066;2023-02-28T09:08:33;4.87;;;2.10;;
14074;SDS011;12831;52.392;13.066;2023-02-28T09:10:59;4.78;;;2.35;;
14074;SDS011;12831;52.392;13.066;2023-02-28T09:13:28;6.97;;;2.17;;
14074;SDS011;12831;52.392;13.066;2023-02-28T09:15:56;5.38;;;2.20;;
14074;SDS011;12831;52.392;13.066;2023-02-28T09:18:23;6.20;;;2.08;;
14074;SDS011;12831;52.392;13.066;2023-02-28T09:20:48;5.57;;;2.47;;
14074;SDS011;12831;52.392;13.066;2023-02-28T09:23:15;4.97;;;2.97;;
14074;SDS011;12831;52.392;13.066;2023-02-28T09:25:49;4.38;;;1.65;;
14074;SDS011;12831;52.392;13.066;2023-02-28T09:28:15;7.43;;;2.42;;
14074;SDS011;12831;52.392;13.066;2023-02-28T09:30:44;2.58;;;1.40;;
14074;SDS011;12831;52.392;13.066;2023-02-28T09:33:17;4.80;;;1.80;;
14074;SDS011;12831;52.392;13.066;2023-02-28T09:35:46;5.18;;;2.70;;
14074;SDS011;12831;52.392;13.066;2023-02-28T09:38:12;4.68;;;2.05;;
14074;SDS011;12831;52.392;13.066;2023-02-28T09:41:00;3.22;;;1.77;;
14074;SDS011;12831;52.392;13.066;2023-02-28T09:43:26;2.75;;;1.75;;
14074;SDS011;12831;52.392;13.066;2023-02-28T09:46:01;2.50;;;1.33;;
14074;SDS011;12831;52.392;13.066;2023-02-28T09:48:33;2.72;;;1.48;;
14074;SDS011;12831;52.392;13.066;2023-02-28T09:51:05;4.93;;;1.55;;
14074;SDS011;12831;52.392;13.066;2023-02-28T09:53:36;7.05;;;1.80;;
14074;SDS011;12831;52.392;13.066;2023-02-28T09:56:15;3.10;;;1.45;;
14074;SDS011;12831;52.392;13.066;2023-02-28T10:03:59;11.85;;;1.50;;
14074;SDS011;12831;52.392;13.066;2023-02-28T10:06:27;5.40;;;2.15;;
14074;SDS011;12831;52.392;13.066;2023-02-28T10:09:01;3.67;;;1.90;;
14074;SDS011;12831;52.392;13.066;2023-02-28T10:11:28;2.97;;;1.38;;
14074;SDS011;12831;52.392;13.066;2023-02-28T10:13:59;4.03;;;1.27;;
14074;SDS011;12831;52.392;13.066;2023-02-28T10:16:31;5.55;;;1.73;;
14074;SDS011;12831;52.392;13.066;2023-02-28T10:19:02;2.90;;;1.23;;
14074;SDS011;12831;52.392;13.066;2023-02-28T10:21:35;2.15;;;1.58;;
14074;SDS011;12831;52.392;13.066;2023-02-28T10:24:04;3.20;;;1.40;;
14074;SDS011;12831;52.392;13.066;2023-02-28T10:26:31;2.97;;;1.38;;
14074;SDS011;12831;52.392;13.066;2023-02-28T10:28:59;6.20;;;2.20;;
14074;SDS011;12831;52.392;13.066;2023-02-28T10:31:26;3.55;;;1.80;;
14074;SDS011;12831;52.392;13.066;2023-02-28T10:33:57;4.72;;;2.00;;
14074;SDS011;12831;52.392;13.066;2023-02-28T10:36:23;4.78;;;1.90;;
14074;SDS011;12831;52.392;13.066;2023-02-28T10:38:50;3.10;;;1.80;;
14074;SDS011;12831;52.392;13.066;2023-02-28T10:41:27;5.60;;;2.28;;
14074;SDS011;12831;52.392;13.066;2023-02-28T10:44:12;4.03;;;2.03;;
14074;SDS011;12831;52.392;13.066;2023-02-28T10:46:39;4.22;;;1.88;;
14074;SDS011;12831;52.392;13.066;2023-02-28T10:49:07;4.78;;;1.80;;
14074;SDS011;12831;52.392;13.066;2023-02-28T10:51:39;2.78;;;1.45;;
14074;SDS011;12831;52.392;13.066;2023-02-28T10:54:05;3.92;;;1.95;;
14074;SDS011;12831;52.392;13.066;2023-02-28T10:56:39;4.68;;;1.70;;
14074;SDS011;12831;52.392;13.066;2023-02-28T11:01:41;3.78;;;1.30;;
14074;SDS011;12831;52.392;13.066;2023-02-28T11:06:45;4.32;;;1.80;;
14074;SDS011;12831;52.392;13.066;2023-02-28T11:09:18;10.70;;;4.45;;
14074;SDS011;12831;52.392;13.066;2023-02-28T11:11:45;4.15;;;2.05;;
14074;SDS011;12831;52.392;13.066;2023-02-28T11:14:18;5.70;;;1.60;;
14074;SDS011;12831;52.392;13.066;2023-02-28T11:16:44;3.58;;;2.05;;
14074;SDS011;12831;52.392;13.066;2023-02-28T11:19:17;6.72;;;2.03;;
14074;SDS011;12831;52.392;13.066;2023-02-28T11:21:46;4.28;;;2.10;;
14074;SDS011;12831;52.392;13.066;2023-02-28T11:24:22;4.17;;;2.00;;
14074;SDS011;12831;52.392;13.066;2023-02-28T11:26:48;14.55;;;2.60;;
14074;SDS011;12831;52.392;13.066;2023-02-28T11:29:23;3.22;;;1.92;;
14074;SDS011;12831;52.392;13.066;2023-02-28T11:32:02;4.72;;;2.47;;
14074;SDS011;12831;52.392;13.066;2023-02-28T11:37:41;5.45;;;2.00;;
14074;SDS011;12831;52.392;13.066;2023-02-28T11:43:02;6.65;;;2.33;;
14074;SDS011;12831;52.392;13.066;2023-02-28T11:45:36;4.35;;;2.08;;
14074;SDS011;12831;52.392;13.066;2023-02-28T11:48:19;5.32;;;2.28;;
14074;SDS011;12831;52.392;13.066;2023-02-28T11:56:09;9.00;;;2.38;;
14074;SDS011;12831;52.392;13.066;2023-02-28T12:01:18;3.80;;;2.25;;
14074;SDS011;12831;52.392;13.066;2023-02-28T12:11:29;6.43;;;2.40;;
14074;SDS011;12831;52.392;13.066;2023-02-28T12:16:49;7.05;;;3.22;;
14074;SDS011;12831;52.392;13.066;2023-02-28T12:22:15;5.55;;;2.90;;
14074;SDS011;12831;52.392;13.066;2023-02-28T12:27:21;5.65;;;2.03;;
14074;SDS011;12831;52.392;13.066;2023-02-28T12:29:52;4.10;;;2.03;;
14074;SDS011;12831;52.392;13.066;2023-02-28T12:32:25;3.20;;;1.77;;
14074;SDS011;12831;52.392;13.066;2023-02-28T12:35:12;6.60;;;2.35;;
14074;SDS011;12831;52.392;13.066;2023-02-28T12:37:40;4.28;;;2.10;;
14074;SDS011;12831;52.392;13.066;2023-02-28T12:40:13;5.35;;;1.60;;
14074;SDS011;12831;52.392;13.066;2023-02-28T12:42:42;7.85;;;3.45;;
14074;SDS011;12831;52.392;13.066;2023-02-28T12:48:03;4.72;;;1.75;;
14074;SDS011;12831;52.392;13.066;2023-02-28T12:50:30;3.72;;;2.15;;
14074;SDS011;12831;52.392;13.066;2023-02-28T12:53:02;5.60;;;2.45;;
14074;SDS011;12831;52.392;13.066;2023-02-28T13:04:27;3.65;;;1.77;;
14074;SDS011;12831;52.392;13.066;2023-02-28T13:08:57;3.92;;;2.15;;
14074;SDS011;12831;52.392;13.066;2023-02-28T13:11:28;4.20;;;1.90;;
14074;SDS011;12831;52.392;13.066;2023-02-28T13:13:59;6.00;;;3.03;;
14074;SDS011;12831;52.392;13.066;2023-02-28T13:16:25;4.75;;;2.50;;
14074;SDS011;12831;52.392;13.066;2023-02-28T13:18:51;4.78;;;2.80;;
14074;SDS011;12831;52.392;13.066;2023-02-28T13:21:28;5.20;;;2.05;;
14074;SDS011;12831;52.392;13.066;2023-02-28T13:23:58;7.25;;;3.03;;
14074;SDS011;12831;52.392;13.066;2023-02-28T13:34:20;10.35;;;3.17;;
14074;SDS011;12831;52.392;13.066;2023-02-28T13:36:46;5.22;;;2.10;;
14074;SDS011;12831;52.392;13.066;2023-02-28T13:42:12;4.18;;;2.88;;
14074;SDS011;12831;52.392;13.066;2023-02-28T13:47:31;5.05;;;2.38;;
14074;SDS011;12831;52.392;13.066;2023-02-28T13:50:15;4.57;;;2.38;;
14074;SDS011;12831;52.392;13.066;2023-02-28T13:52:51;5.35;;;2.78;;
14074;SDS011;12831;52.392;13.066;2023-02-28T13:55:25;6.57;;;2.58;;
14074;SDS011;12831;52.392;13.066;2023-02-28T13:58:09;5.72;;;3.03;;
14074;SDS011;12831;52.392;13.066;2023-02-28T14:06:49;4.22;;;2.35;;
14074;SDS011;12831;52.392;13.066;2023-02-28T14:09:38;5.05;;;2.28;;
14074;SDS011;12831;52.392;13.066;2023-02-28T14:17:18;4.88;;;2.25;;
14074;SDS011;12831;52.392;13.066;2023-02-28T14:19:44;4.97;;;2.33;;
14074;SDS011;12831;52.392;13.066;2023-02-28T14:27:22;6.10;;;3.85;;
14074;SDS011;12831;52.392;13.066;2023-02-28T14:37:54;5.85;;;2.65;;
14074;SDS011;12831;52.392;13.066;2023-02-28T14:40:23;6.13;;;2.40;;
14074;SDS011;12831;52.392;13.066;2023-02-28T14:42:55;5.22;;;2.42;;
14074;SDS011;12831;52.392;13.066;2023-02-28T14:45:24;4.32;;;2.58;;
14074;SDS011;12831;52.392;13.066;2023-02-28T14:47:52;5.13;;;2.63;;
14074;SDS011;12831;52.392;13.066;2023-02-28T14:50:20;8.55;;;3.03;;
14074;SDS011;12831;52.392;13.066;2023-02-28T14:52:52;4.82;;;2.60;;
14074;SDS011;12831;52.392;13.066;2023-02-28T14:55:19;5.07;;;2.40;;
14074;SDS011;12831;52.392;13.066;2023-02-28T14:57:58;9.65;;;3.50;;
14074;SDS011;12831;52.392;13.066;2023-02-28T15:00:26;8.63;;;3.78;;
14074;SDS011;12831;52.392;13.066;2023-02-28T15:03:21;6.72;;;2.85;;
14074;SDS011;12831;52.392;13.066;2023-02-28T15:05:52;4.65;;;3.08;;
14074;SDS011;12831;52.392;13.066;2023-02-28T15:08:19;5.65;;;2.88;;
14074;SDS011;12831;52.392;13.066;2023-02-28T15:10:51;8.77;;;3.22;;
14074;SDS011;12831;52.392;13.066;2023-02-28T15:13:20;8.98;;;3.10;;
14074;SDS011;12831;52.392;13.066;2023-02-28T15:16:01;6.55;;;2.85;;
14074;SDS011;12831;52.392;13.066;2023-02-28T15:20:59;7.25;;;3.10;;
14074;SDS011;12831;52.392;13.066;2023-02-28T15:23:27;6.13;;;2.60;;
14074;SDS011;12831;52.392;13.066;2023-02-28T15:25:55;9.07;;;3.95;;
14074;SDS011;12831;52.392;13.066;2023-02-28T15:28:24;6.90;;;3.65;;
14074;SDS011;12831;52.392;13.066;2023-02-28T15:30:54;8.52;;;3.42;;
14074;SDS011;12831;52.392;13.066;2023-02-28T15:36:38;7.97;;;3.50;;
14074;SDS011;12831;52.392;13.066;2023-02-28T15:39:18;9.52;;;3.88;;
14074;SDS011;12831;52.392;13.066;2023-02-28T15:41:44;7.35;;;3.42;;
14074;SDS011;12831;52.392;13.066;2023-02-28T15:44:27;9.70;;;4.10;;
14074;SDS011;12831;52.392;13.066;2023-02-28T15:47:20;7.03;;;2.88;;
14074;SDS011;12831;52.392;13.066;2023-02-28T15:49:49;7.50;;;3.17;;
14074;SDS011;12831;52.392;13.066;2023-02-28T15:52:17;5.72;;;3.00;;
14074;SDS011;12831;52.392;13.066;2023-02-28T15:54:55;7.35;;;2.60;;
14074;SDS011;12831;52.392;13.066;2023-02-28T15:57:23;6.05;;;3.28;;
14074;SDS011;12831;52.392;13.066;2023-02-28T15:59:51;8.35;;;3.53;;
14074;SDS011;12831;52.392;13.066;2023-02-28T16:02:20;6.97;;;3.38;;
14074;SDS011;12831;52.392;13.066;2023-02-28T16:07:41;6.97;;;3.13;;
14074;SDS011;12831;52.392;13.066;2023-02-28T16:10:08;4.85;;;2.83;;
14074;SDS011;12831;52.392;13.066;2023-02-28T16:12:35;6.30;;;2.70;;
14074;SDS011;12831;52.392;13.066;2023-02-28T16:15:03;5.82;;;2.97;;
14074;SDS011;12831;52.392;13.066;2023-02-28T16:17:33;5.38;;;2.47;;
14074;SDS011;12831;52.392;13.066;2023-02-28T16:20:18;5.82;;;2.97;;
14074;SDS011;12831;52.392;13.066;2023-02-28T16:22:45;6.30;;;2.38;;
14074;SDS011;12831;52.392;13.066;2023-02-28T16:25:15;6.13;;;2.97;;
14074;SDS011;12831;52.392;13.066;2023-02-28T16:27:42;6.43;;;3.75;;
14074;SDS011;12831;52.392;13.066;2023-02-28T16:30:17;11.95;;;4.70;;
14074;SDS011;12831;52.392;13.066;2023-02-28T16:32:46;7.15;;;3.42;;
14074;SDS011;12831;52.392;13.066;2023-02-28T16:35:18;5.72;;;2.13;;
14074;SDS011;12831;52.392;13.066;2023-02-28T16:37:45;8.68;;;2.75;;
14074;SDS011;12831;52.392;13.066;2023-02-28T16:46:08;7.30;;;2.55;;
14074;SDS011;12831;52.392;13.066;2023-02-28T16:48:36;5.83;;;2.13;;